Time,TemperatureF,DewpointF,PressureIn,WindDirection,WindDirectionDegrees,WindSpeedMPH,WindSpeedGustMPH,Humidity,HourlyPrecipIn,Conditions,Clouds,dailyrainin,SolarRadiationWatts/m^2,SoftwareType,DateUTC
2013-12-29 00:22:00,-6.0,-16.0,-100.00,North,-999,0.0,39.0,62,0.00,,,0.00,0.000000,,2013-12-29 06:22:00,
2013-12-29 00:32:00,-6.0,-16.0,-100.00,North,-999,0.0,39.0,62,0.00,,,0.00,0.000000,,2013-12-29 06:32:00,
2013-12-29 00:43:00,-6.0,-16.0,-100.00,North,-999,0.0,39.0,62,0.00,,,0.00,0.000000,,2013-12-29 06:43:00,
2013-12-29 00:51:00,-8.0,-18.0,-100.00,North,-999,0.0,0.0,61,0.00,,,0.00,0.000000,,2013-12-29 06:51:00,
2013-12-29 01:22:00,-8.0,-18.0,-100.00,North,-999,0.0,0.0,61,0.00,,,0.00,0.000000,,2013-12-29 07:22:00,
2013-12-29 01:32:00,-8.0,-18.0,-100.00,North,-999,0.0,0.0,61,0.00,,,0.00,0.000000,,2013-12-29 07:32:00,
2013-12-29 01:42:00,-8.0,-18.0,-100.00,North,-999,0.0,0.0,61,0.00,,,0.00,0.000000,,2013-12-29 07:42:00,
2013-12-29 01:51:00,-10.0,-20.0,-100.00,North,-999,0.0,0.0,60,0.00,,,0.00,0.000000,,2013-12-29 07:51:00,
2013-12-29 02:22:00,-10.0,-20.0,-100.00,North,-999,0.0,0.0,60,0.00,,,0.00,0.000000,,2013-12-29 08:22:00,
2013-12-29 02:32:00,-10.0,-20.0,-100.00,North,-999,0.0,0.0,60,0.00,,,0.00,0.000000,,2013-12-29 08:32:00,
2013-12-29 02:42:00,-10.0,-20.0,-100.00,North,-999,0.0,0.0,60,0.00,,,0.00,0.000000,,2013-12-29 08:42:00,
2013-12-29 02:51:00,-11.0,-21.0,-100.00,North,-999,0.0,0.0,59,0.00,,,0.00,0.000000,,2013-12-29 08:51:00,
2013-12-29 03:22:00,-11.0,-21.0,-100.00,North,-999,0.0,0.0,59,0.00,,,0.00,0.000000,,2013-12-29 09:22:00,
2013-12-29 03:33:00,-11.0,-21.0,-100.00,North,-999,0.0,0.0,59,0.00,,,0.00,0.000000,,2013-12-29 09:33:00,
2013-12-29 03:43:00,-11.0,-21.0,-100.00,North,-999,0.0,0.0,59,0.00,,,0.00,0.000000,,2013-12-29 09:43:00,
2013-12-29 03:51:00,-12.0,-23.0,-100.00,North,-999,0.0,0.0,57,0.00,,,0.00,0.000000,,2013-12-29 09:51:00,
2013-12-29 04:23:00,-12.0,-23.0,-100.00,North,-999,0.0,0.0,57,0.00,,,0.00,0.000000,,2013-12-29 10:23:00,
2013-12-29 04:33:00,-12.0,-23.0,-100.00,North,-999,0.0,0.0,57,0.00,,,0.00,0.000000,,2013-12-29 10:33:00,
2013-12-29 04:43:00,-12.0,-23.0,-100.00,North,-999,0.0,0.0,57,0.00,,,0.00,0.000000,,2013-12-29 10:43:00,
2013-12-29 04:51:00,-12.0,-23.0,-100.00,North,-999,0.0,0.0,57,0.00,,,-99.99,0.000000,,2013-12-29 10:51:00,
2013-12-29 05:22:00,-12.0,-23.0,-100.00,North,-999,0.0,0.0,57,0.00,,,-99.99,0.000000,,2013-12-29 11:22:00,
2013-12-29 05:33:00,-12.0,-23.0,-100.00,North,-999,0.0,0.0,57,0.00,,,-99.99,0.000000,,2013-12-29 11:33:00,
2013-12-29 05:42:00,-12.0,-23.0,-100.00,North,-999,0.0,0.0,57,0.00,,,-99.99,0.000000,,2013-12-29 11:42:00,
2013-12-29 05:51:00,-12.0,-23.0,-100.00,North,-999,0.0,0.0,57,0.00,,,0.00,0.000000,,2013-12-29 11:51:00,
2013-12-29 06:22:00,-12.0,-23.0,-100.00,North,-999,0.0,0.0,57,0.00,,,0.00,0.000000,,2013-12-29 12:22:00,
2013-12-29 06:32:00,-12.0,-23.0,-100.00,North,-999,0.0,0.0,57,0.00,,,0.00,0.000000,,2013-12-29 12:32:00,
2013-12-29 06:42:00,-12.0,-23.0,-100.00,North,-999,0.0,0.0,57,0.00,,,0.00,0.000000,,2013-12-29 12:42:00,
2013-12-29 06:51:00,-12.0,-23.0,-100.00,North,-999,0.0,0.0,57,0.00,,,0.00,0.000000,,2013-12-29 12:51:00,
2013-12-29 07:22:00,-12.0,-23.0,-100.00,North,-999,0.0,0.0,57,0.00,,,0.00,0.000000,,2013-12-29 13:22:00,
2013-12-29 07:32:00,-12.0,-23.0,-100.00,North,-999,0.0,0.0,57,0.00,,,0.00,0.000000,,2013-12-29 13:32:00,
2013-12-29 07:42:00,-12.0,-23.0,-100.00,North,-999,0.0,0.0,57,0.00,,,0.00,0.000000,,2013-12-29 13:42:00,
2013-12-29 07:51:00,-13.0,-24.0,-100.00,North,-999,0.0,0.0,57,0.00,,,0.00,0.000000,,2013-12-29 13:51:00,
2013-12-29 08:22:00,-13.0,-24.0,-100.00,North,-999,0.0,0.0,57,0.00,,,0.00,0.000000,,2013-12-29 14:22:00,
2013-12-29 08:32:00,-13.0,-24.0,-100.00,North,-999,0.0,0.0,57,0.00,,,0.00,0.000000,,2013-12-29 14:32:00,
2013-12-29 08:42:00,-13.0,-24.0,-100.00,North,-999,0.0,0.0,57,0.00,,,0.00,0.000000,,2013-12-29 14:42:00,
2013-12-29 08:51:00,-12.0,-23.0,-100.00,North,-999,0.0,0.0,56,0.00,,,0.00,23.000000,,2013-12-29 14:51:00,
2013-12-29 09:21:00,-12.0,-23.0,-100.00,North,-999,0.0,0.0,56,0.00,,,0.00,23.000000,,2013-12-29 15:21:00,
2013-12-29 09:33:00,-12.0,-23.0,-100.00,North,-999,0.0,0.0,56,0.00,,,0.00,23.000000,,2013-12-29 15:33:00,
2013-12-29 09:44:00,-12.0,-23.0,-100.00,North,-999,0.0,0.0,56,0.00,,,0.00,23.000000,,2013-12-29 15:44:00,
2013-12-29 09:51:00,-10.0,-23.0,-100.00,North,-999,0.0,0.0,52,0.00,,,0.00,154.000000,,2013-12-29 15:51:00,
2013-12-29 10:23:00,-10.0,-23.0,-100.00,North,-999,0.0,0.0,52,0.00,,,0.00,154.000000,,2013-12-29 16:23:00,
2013-12-29 10:33:00,-10.0,-23.0,-100.00,North,-999,0.0,0.0,52,0.00,,,0.00,154.000000,,2013-12-29 16:33:00,
2013-12-29 10:43:00,-10.0,-23.0,-100.00,North,-999,0.0,0.0,52,0.00,,,0.00,154.000000,,2013-12-29 16:43:00,
2013-12-29 10:51:00,-7.0,-21.0,-100.00,North,-999,0.0,0.0,49,0.00,,,0.00,280.000000,,2013-12-29 16:51:00,
2013-12-29 11:22:00,-7.0,-21.0,-100.00,North,-999,0.0,0.0,49,0.00,,,0.00,280.000000,,2013-12-29 17:22:00,
2013-12-29 11:33:00,-7.0,-21.0,-100.00,North,-999,0.0,0.0,49,0.00,,,0.00,280.000000,,2013-12-29 17:33:00,
2013-12-29 11:42:00,-7.0,-21.0,-100.00,North,-999,0.0,0.0,49,0.00,,,0.00,280.000000,,2013-12-29 17:42:00,
2013-12-29 11:51:00,-5.0,-19.0,-100.00,North,-999,0.0,0.0,49,0.00,,,0.00,368.000000,,2013-12-29 17:51:00,
2013-12-29 12:22:00,-5.0,-19.0,-100.00,North,-999,0.0,0.0,49,0.00,,,0.00,368.000000,,2013-12-29 18:22:00,
2013-12-29 12:32:00,-5.0,-19.0,-100.00,North,-999,0.0,0.0,49,0.00,,,0.00,368.000000,,2013-12-29 18:32:00,
2013-12-29 12:42:00,-5.0,-19.0,-100.00,North,-999,0.0,0.0,49,0.00,,,0.00,368.000000,,2013-12-29 18:42:00,
2013-12-29 12:51:00,-3.0,-17.0,-100.00,North,-999,0.0,0.0,49,0.00,,,0.00,407.000000,,2013-12-29 18:51:00,
2013-12-29 13:21:00,-3.0,-17.0,-100.00,North,-999,0.0,0.0,49,0.00,,,0.00,407.000000,,2013-12-29 19:21:00,
2013-12-29 13:33:00,-3.0,-17.0,-100.00,North,-999,0.0,0.0,49,0.00,,,0.00,407.000000,,2013-12-29 19:33:00,
2013-12-29 13:43:00,-3.0,-17.0,-100.00,North,-999,0.0,0.0,49,0.00,,,0.00,407.000000,,2013-12-29 19:43:00,
2013-12-29 13:51:00,-2.0,-16.0,-100.00,North,-999,0.0,0.0,50,0.00,,,0.00,389.000000,,2013-12-29 19:51:00,
2013-12-29 14:22:00,-2.0,-16.0,-100.00,North,-999,0.0,0.0,50,0.00,,,0.00,389.000000,,2013-12-29 20:22:00,
2013-12-29 14:32:00,-2.0,-16.0,-100.00,North,-999,0.0,0.0,50,0.00,,,0.00,389.000000,,2013-12-29 20:32:00,
2013-12-29 14:42:00,-2.0,-16.0,-100.00,North,-999,0.0,0.0,50,0.00,,,0.00,389.000000,,2013-12-29 20:42:00,
2013-12-29 14:51:00,-1.0,-16.0,-100.00,NW,313,4.0,10.0,49,0.00,,,0.00,318.000000,,2013-12-29 20:51:00,
2013-12-29 15:22:00,-1.0,-16.0,-100.00,NW,313,4.0,10.0,49,0.00,,,0.00,318.000000,,2013-12-29 21:22:00,
2013-12-29 15:33:00,-1.0,-16.0,-100.00,NW,313,4.0,10.0,49,0.00,,,0.00,318.000000,,2013-12-29 21:33:00,
2013-12-29 15:43:00,-1.0,-16.0,-100.00,NW,313,4.0,10.0,49,0.00,,,0.00,318.000000,,2013-12-29 21:43:00,
2013-12-29 15:51:00,-2.0,-18.0,-100.00,NW,317,8.0,10.0,46,0.00,,,0.00,204.000000,,2013-12-29 21:51:00,
2013-12-29 16:23:00,-2.0,-18.0,-100.00,NW,317,8.0,10.0,46,0.00,,,0.00,204.000000,,2013-12-29 22:23:00,
2013-12-29 16:33:00,-2.0,-18.0,-100.00,NW,317,8.0,10.0,46,0.00,,,0.00,204.000000,,2013-12-29 22:33:00,
2013-12-29 16:42:00,-2.0,-18.0,-100.00,NW,317,8.0,10.0,46,0.00,,,0.00,204.000000,,2013-12-29 22:42:00,
2013-12-29 16:51:00,-5.0,-17.0,-100.00,North,-999,0.0,8.0,55,0.00,,,0.00,58.000000,,2013-12-29 22:51:00,
2013-12-29 17:22:00,-5.0,-17.0,-100.00,North,-999,0.0,8.0,55,0.00,,,0.00,58.000000,,2013-12-29 23:22:00,
2013-12-29 17:33:00,-5.0,-17.0,-100.00,North,-999,0.0,8.0,55,0.00,,,0.00,58.000000,,2013-12-29 23:33:00,
2013-12-29 17:42:00,-5.0,-17.0,-100.00,North,-999,0.0,8.0,55,0.00,,,0.00,58.000000,,2013-12-29 23:42:00,
2013-12-29 17:51:00,-11.0,-19.0,-100.00,North,-999,0.0,0.0,66,0.00,,,0.00,1.000000,,2013-12-29 23:51:00,
2013-12-29 18:22:00,-11.0,-19.0,-100.00,North,-999,0.0,0.0,66,0.00,,,0.00,1.000000,,2013-12-30 00:22:00,
2013-12-29 18:32:00,-11.0,-19.0,-100.00,North,-999,0.0,0.0,66,0.00,,,0.00,1.000000,,2013-12-30 00:32:00,
2013-12-29 18:42:00,-11.0,-19.0,-100.00,North,-999,0.0,0.0,66,0.00,,,0.00,1.000000,,2013-12-30 00:42:00,
2013-12-29 18:51:00,-12.0,-19.0,-100.00,North,-999,0.0,0.0,69,0.00,,,0.00,0.000000,,2013-12-30 00:51:00,
2013-12-29 19:22:00,-12.0,-19.0,-100.00,North,-999,0.0,0.0,69,0.00,,,0.00,0.000000,,2013-12-30 01:22:00,
2013-12-29 19:32:00,-12.0,-19.0,-100.00,North,-999,0.0,0.0,69,0.00,,,0.00,0.000000,,2013-12-30 01:32:00,
2013-12-29 19:42:00,-12.0,-19.0,-100.00,North,-999,0.0,0.0,69,0.00,,,0.00,0.000000,,2013-12-30 01:42:00,
2013-12-29 19:51:00,-15.0,-22.0,-100.00,North,-999,0.0,0.0,69,0.00,,,0.00,0.000000,,2013-12-30 01:51:00,
2013-12-29 20:22:00,-15.0,-22.0,-100.00,North,-999,0.0,0.0,69,0.00,,,0.00,0.000000,,2013-12-30 02:22:00,
2013-12-29 20:32:00,-15.0,-22.0,-100.00,North,-999,0.0,0.0,69,0.00,,,0.00,0.000000,,2013-12-30 02:32:00,
2013-12-29 20:42:00,-15.0,-22.0,-100.00,North,-999,0.0,0.0,69,0.00,,,0.00,0.000000,,2013-12-30 02:42:00,
2013-12-29 20:51:00,-16.0,-23.0,-100.00,North,-999,0.0,0.0,70,0.00,,,0.00,0.000000,,2013-12-30 02:51:00,
2013-12-29 21:21:00,-16.0,-23.0,-100.00,North,-999,0.0,0.0,70,0.00,,,0.00,0.000000,,2013-12-30 03:21:00,
2013-12-29 21:33:00,-16.0,-23.0,-100.00,North,-999,0.0,0.0,70,0.00,,,0.00,0.000000,,2013-12-30 03:33:00,
2013-12-29 21:43:00,-16.0,-23.0,-100.00,North,-999,0.0,0.0,70,0.00,,,0.00,0.000000,,2013-12-30 03:43:00,
2013-12-29 21:51:00,-16.0,-23.0,-100.00,North,-999,0.0,0.0,69,0.00,,,0.00,0.000000,,2013-12-30 03:51:00,
2013-12-29 22:23:00,-16.0,-23.0,-100.00,North,-999,0.0,0.0,69,0.00,,,0.00,0.000000,,2013-12-30 04:23:00,
2013-12-29 22:33:00,-16.0,-23.0,-100.00,North,-999,0.0,0.0,69,0.00,,,0.00,0.000000,,2013-12-30 04:33:00,
2013-12-29 22:42:00,-16.0,-23.0,-100.00,North,-999,0.0,0.0,69,0.00,,,0.00,0.000000,,2013-12-30 04:42:00,
2013-12-29 22:51:00,-12.0,-19.0,-100.00,North,-999,0.0,0.0,71,0.00,,,0.00,0.000000,,2013-12-30 04:51:00,
2013-12-29 23:23:00,-12.0,-19.0,-100.00,North,-999,0.0,0.0,71,0.00,,,0.00,0.000000,,2013-12-30 05:23:00,
2013-12-29 23:33:00,-12.0,-19.0,-100.00,North,-999,0.0,0.0,71,0.00,,,0.00,0.000000,,2013-12-30 05:33:00,
2013-12-29 23:43:00,-12.0,-19.0,-100.00,North,-999,0.0,0.0,71,0.00,,,0.00,0.000000,,2013-12-30 05:43:00,
2013-12-29 23:51:00,-9.0,-16.0,-100.00,North,-999,0.0,0.0,71,0.00,,,0.00,0.000000,,2013-12-30 05:51:00,